createdAt,value
2019-06-20T00:03:05.677Z,98632.39
2019-06-20T00:07:07.791Z,98628.75
2019-06-20T00:11:09.884Z,98629.70
2019-06-20T00:15:12.839Z,98632.40
2019-06-20T00:19:14.584Z,98634.66
2019-06-20T00:23:16.473Z,98630.83
2019-06-20T00:27:18.536Z,98633.77
2019-06-20T00:31:20.438Z,98637.44
2019-06-20T00:35:22.314Z,98636.56
2019-06-20T00:39:24.335Z,98650.45
2019-06-20T00:43:26.145Z,98646.81
2019-06-20T00:47:27.933Z,98632.22
2019-06-20T00:51:29.791Z,98637.61
2019-06-20T00:55:31.918Z,98644.22
2019-06-20T00:59:33.670Z,98644.90
2019-06-20T01:03:35.500Z,98663.98
2019-06-20T01:07:37.267Z,98672.23
2019-06-20T01:11:39.040Z,98664.18
2019-06-20T01:15:40.794Z,98668.50
2019-06-20T01:19:42.845Z,98671.73
2019-06-20T01:23:44.591Z,98672.25
2019-06-20T01:27:46.406Z,98682.84
2019-06-20T01:31:48.155Z,98681.64
2019-06-20T01:35:49.944Z,98695.34
2019-06-20T01:39:51.650Z,98700.55
2019-06-20T01:43:53.649Z,98711.22
2019-06-20T01:47:55.488Z,98710.09
2019-06-20T01:51:57.229Z,98709.41
2019-06-20T01:55:59.235Z,98706.71
2019-06-20T02:00:01.057Z,98715.57
2019-06-20T02:04:03.481Z,98709.65
2019-06-20T02:08:05.278Z,98708.10
2019-06-20T02:12:07.441Z,98711.74
2019-06-20T02:16:09.342Z,98710.36
2019-06-20T02:20:27.133Z,98703.86
2019-06-20T02:24:29.343Z,98700.97
2019-06-20T02:28:31.193Z,98701.68
2019-06-20T02:32:33.666Z,98704.09
2019-06-20T02:36:35.881Z,98710.24
2019-06-20T02:40:38.547Z,98711.19
2019-06-20T02:44:40.428Z,98722.41
2019-06-20T02:48:42.541Z,98714.48
2019-06-20T02:52:44.624Z,98715.16
2019-06-20T02:56:46.544Z,98713.06
2019-06-20T03:00:56.150Z,98714.64
2019-06-20T03:04:57.899Z,98713.77
2019-06-20T03:08:59.867Z,98714.11
2019-06-20T03:13:01.759Z,98726.08
2019-06-20T03:17:03.799Z,98728.40
2019-06-20T03:21:05.655Z,98736.84
2019-06-20T03:25:07.475Z,98730.76
2019-06-20T03:29:09.730Z,98736.13
2019-06-20T03:33:11.557Z,98749.10
2019-06-20T03:37:13.278Z,98753.27
2019-06-20T03:41:15.024Z,98753.71
2019-06-20T03:45:16.852Z,98755.75
2019-06-20T03:49:18.874Z,98759.53
2019-06-20T03:53:20.691Z,98759.58
2019-06-20T03:57:22.751Z,98768.19
2019-06-20T04:01:24.937Z,98777.23
2019-06-20T04:05:26.994Z,98768.31
2019-06-20T04:09:29.074Z,98778.62
2019-06-20T04:13:30.889Z,98775.70
2019-06-20T04:17:32.943Z,98779.96
2019-06-20T04:21:35.239Z,98790.59
2019-06-20T04:25:37.095Z,98799.39
2019-06-20T04:29:39.128Z,98794.34
2019-06-20T04:33:41.056Z,98794.28
2019-06-20T04:37:42.758Z,98806.71
2019-06-20T04:41:44.525Z,98814.91
2019-06-20T04:45:46.636Z,98814.41
2019-06-20T04:49:48.852Z,98822.86
2019-06-20T04:53:50.667Z,98823.58
2019-06-20T04:57:52.703Z,98824.84
2019-06-20T05:01:54.456Z,98820.43
2019-06-20T05:05:56.382Z,98823.20
2019-06-20T05:09:58.285Z,98822.06
2019-06-20T05:14:00.087Z,98820.69
2019-06-20T05:18:02.441Z,98825.30
2019-06-20T05:22:04.183Z,98832.31
2019-06-20T05:26:05.976Z,98831.02
2019-06-20T05:30:08.385Z,98840.50
2019-06-20T05:34:10.417Z,98838.19
2019-06-20T05:38:12.164Z,98834.17
2019-06-20T05:42:13.924Z,98844.57
2019-06-20T05:46:15.811Z,98842.23
2019-06-20T05:50:18.291Z,98844.14
2019-06-20T05:54:20.445Z,98843.58
2019-06-20T05:58:22.771Z,98846.28
2019-06-20T06:02:24.581Z,98851.29
2019-06-20T06:06:26.928Z,98859.23
2019-06-20T06:10:28.839Z,98863.81
2019-06-20T06:14:31.599Z,98866.45
2019-06-20T06:18:33.489Z,98863.81
2019-06-20T06:22:35.251Z,98864.92
2019-06-20T06:26:37.172Z,98870.14
2019-06-20T06:30:39.262Z,98866.17
2019-06-20T06:34:41.187Z,98873.67
2019-06-20T06:38:42.921Z,98875.05
2019-06-20T06:42:45.004Z,98879.28
2019-06-20T06:46:54.176Z,98880.39
2019-06-20T06:50:51.996Z,98882.79
2019-06-20T06:54:53.807Z,98881.51
2019-06-20T06:58:55.844Z,98884.62
2019-06-20T07:02:58.035Z,98876.28
2019-06-20T07:07:00.105Z,98879.67
2019-06-20T07:11:01.867Z,98881.96
2019-06-20T07:15:04.507Z,98883.75
2019-06-20T07:19:06.651Z,98882.87
2019-06-20T07:23:08.449Z,98886.09
2019-06-20T07:27:10.357Z,98882.58
2019-06-20T07:31:12.190Z,98891.76
2019-06-20T07:35:14.346Z,98889.48
2019-06-20T07:39:16.133Z,98890.84
2019-06-20T07:43:18.029Z,98882.94
2019-06-20T07:47:21.055Z,98885.41
2019-06-20T07:51:22.870Z,98883.12
2019-06-20T07:55:25.153Z,98894.58
2019-06-20T07:59:26.999Z,98895.34
2019-06-20T08:03:28.789Z,98888.78
2019-06-20T08:07:35.541Z,98893.70
2019-06-20T08:11:37.701Z,98885.81
2019-06-20T08:15:39.951Z,98890.02
2019-06-20T08:19:42.869Z,98887.19
2019-06-20T08:23:45.399Z,98886.53
2019-06-20T08:27:47.781Z,98895.75
2019-06-20T08:31:49.786Z,98895.37
2019-06-20T08:35:51.616Z,98896.69
2019-06-20T08:39:56.756Z,98906.62
2019-06-20T08:43:58.467Z,98897.95
2019-06-20T08:48:02.693Z,98898.70
2019-06-20T08:52:05.608Z,98894.22
2019-06-20T08:56:07.733Z,98898.28
2019-06-20T09:00:09.960Z,98912.55
2019-06-20T09:04:12.096Z,98911.15
2019-06-20T09:08:14.360Z,98900.56
2019-06-20T09:12:16.511Z,98907.81
2019-06-20T09:16:24.517Z,98900.41
2019-06-20T09:20:22.565Z,98902.73
2019-06-20T09:24:24.452Z,98903.31
2019-06-20T09:28:26.588Z,98907.03
2019-06-20T09:32:29.086Z,98909.00
2019-06-20T09:36:30.881Z,98908.63
2019-06-20T09:40:36.480Z,98908.13
2019-06-20T09:44:38.664Z,98917.88
2019-06-20T09:48:40.598Z,98917.28
2019-06-20T09:52:43.349Z,98916.33
2019-06-20T09:56:48.491Z,98927.70
2019-06-20T10:00:50.861Z,98927.88
2019-06-20T10:04:54.437Z,98927.23
2019-06-20T10:08:56.598Z,98938.47
2019-06-20T10:12:58.473Z,98931.12
2019-06-20T10:17:00.357Z,98933.27
2019-06-20T10:21:02.372Z,98942.72
2019-06-20T10:25:04.683Z,98938.11
2019-06-20T10:29:06.417Z,98945.33
2019-06-20T10:33:08.376Z,98948.17
2019-06-20T10:37:10.199Z,98949.36
2019-06-20T10:41:12.056Z,98947.55
2019-06-20T10:45:15.329Z,98953.54
2019-06-20T10:49:17.760Z,98947.23
2019-06-20T10:53:19.809Z,98953.20
2019-06-20T10:57:21.701Z,98956.05
2019-06-20T11:01:23.460Z,98953.75
2019-06-20T11:05:25.285Z,98952.81
2019-06-20T11:09:27.186Z,98957.66
2019-06-20T11:13:29.107Z,98948.38
2019-06-20T11:17:31.175Z,98952.10
2019-06-20T11:21:47.617Z,98949.70
2019-06-20T11:25:51.893Z,98950.05
2019-06-20T11:29:54.699Z,98940.39
2019-06-20T11:33:57.072Z,98939.87
2019-06-20T11:38:01.121Z,98936.58
2019-06-20T11:42:02.984Z,98929.90
2019-06-20T11:46:04.968Z,98931.38
2019-06-20T11:50:08.713Z,98930.98
2019-06-20T11:54:10.530Z,98934.42
2019-06-20T11:58:13.149Z,98925.41
2019-06-20T12:02:15.706Z,98927.30
2019-06-20T12:06:21.077Z,98929.45
2019-06-20T12:10:25.487Z,98923.55
2019-06-20T12:14:29.085Z,98922.41
2019-06-20T12:18:31.331Z,98917.41
2019-06-20T12:22:33.368Z,98917.13
2019-06-20T12:26:35.872Z,98917.20
2019-06-20T12:30:39.850Z,98910.48
2019-06-20T12:34:42.939Z,98916.20
2019-06-20T12:38:46.151Z,98910.92
2019-06-20T12:42:57.429Z,98915.33
2019-06-20T12:46:59.557Z,98910.89
2019-06-20T12:51:04.586Z,98913.14
2019-06-20T12:55:14.558Z,98916.11
2019-06-20T12:59:25.357Z,98911.23
2019-06-20T13:03:44.118Z,98914.88
2019-06-20T13:07:51.435Z,98915.28
2019-06-20T13:11:53.799Z,98913.48
2019-06-20T13:15:56.157Z,98920.92
2019-06-20T13:19:58.250Z,98922.92
2019-06-20T13:24:00.068Z,98912.09
2019-06-20T13:28:21.196Z,98920.16
2019-06-20T13:32:35.687Z,98922.98
2019-06-20T13:36:42.822Z,98927.88
2019-06-20T13:40:50.786Z,98934.11
2019-06-20T13:44:58.351Z,98943.66
2019-06-20T13:49:03.173Z,98953.05
2019-06-20T13:53:05.006Z,98966.92
2019-06-20T13:57:06.883Z,98984.06
2019-06-20T14:01:09.208Z,98980.16
2019-06-20T14:05:12.154Z,98981.03
2019-06-20T14:09:14.294Z,98982.53
2019-06-20T14:13:19.534Z,98987.60
2019-06-20T14:17:20.201Z,98990.67
2019-06-20T14:21:22.001Z,98982.30
2019-06-20T14:25:24.224Z,98983.57
2019-06-20T14:29:26.812Z,98966.91
2019-06-20T14:33:31.798Z,98978.40
2019-06-20T14:37:33.095Z,98994.30
2019-06-20T14:41:35.208Z,99005.01
2019-06-20T14:45:38.143Z,99003.80
2019-06-20T14:49:39.971Z,99001.80
2019-06-20T14:53:43.912Z,98998.45
2019-06-20T14:57:46.972Z,98990.89
2019-06-20T15:01:50.635Z,98996.66
2019-06-20T15:05:52.698Z,98997.39
2019-06-20T15:09:55.266Z,99003.30
2019-06-20T15:13:57.866Z,99001.84
2019-06-20T15:17:59.795Z,99005.41
2019-06-20T15:22:01.628Z,99013.61
2019-06-20T15:26:03.503Z,99017.98
2019-06-20T15:30:06.075Z,99014.98
2019-06-20T15:34:08.297Z,99015.00
2019-06-20T15:38:10.952Z,99008.56
2019-06-20T15:42:13.655Z,99011.69
2019-06-20T15:46:15.776Z,99001.14
2019-06-20T15:50:17.951Z,98995.81
2019-06-20T15:54:23.667Z,98995.82
2019-06-20T15:58:24.936Z,99005.84
2019-06-20T16:02:27.423Z,99008.69
2019-06-20T16:06:29.386Z,99009.28
2019-06-20T16:10:31.300Z,99004.45
2019-06-20T16:14:33.416Z,99010.94
2019-06-20T16:18:35.513Z,99005.45
2019-06-20T16:22:37.673Z,98998.09
2019-06-20T16:26:47.401Z,99000.40
2019-06-20T16:30:49.293Z,99001.59
2019-06-20T16:34:51.710Z,99004.41
2019-06-20T16:38:54.028Z,99005.01
2019-06-20T16:42:55.831Z,99014.62
2019-06-20T16:46:57.799Z,99020.46
2019-06-20T16:50:59.846Z,99021.95
2019-06-20T16:55:01.594Z,99019.27
2019-06-20T16:59:03.502Z,99016.33
2019-06-20T17:03:05.484Z,99020.36
2019-06-20T17:07:07.617Z,99025.81
2019-06-20T17:11:09.356Z,99034.87
2019-06-20T17:15:12.218Z,99040.94
2019-06-20T17:19:14.245Z,99044.88
2019-06-20T17:23:15.915Z,99050.16
2019-06-20T17:27:18.007Z,99050.91
2019-06-20T17:31:20.516Z,99059.14
2019-06-20T17:35:22.393Z,99063.78
2019-06-20T17:39:24.128Z,99058.50
2019-06-20T17:43:26.228Z,99063.14
2019-06-20T17:47:28.443Z,99060.66
2019-06-20T17:51:30.581Z,99061.72
2019-06-20T17:55:32.637Z,99066.48
2019-06-20T17:59:34.686Z,99071.31
2019-06-20T18:03:36.803Z,99068.52
2019-06-20T18:07:38.899Z,99078.81
2019-06-20T18:11:41.297Z,99078.67
2019-06-20T18:15:43.131Z,99087.48
2019-06-20T18:19:45.539Z,99086.44
2019-06-20T18:23:47.587Z,99081.64
2019-06-20T18:27:49.385Z,99082.34
2019-06-20T18:31:51.156Z,99080.42
2019-06-20T18:35:52.909Z,99087.70
2019-06-20T18:39:54.631Z,99091.92
2019-06-20T18:43:56.384Z,99084.09
2019-06-20T18:47:58.791Z,99094.50
2019-06-20T18:52:00.702Z,99115.26
2019-06-20T18:56:03.014Z,99103.98
2019-06-20T19:00:05.138Z,99101.63
2019-06-20T19:04:07.145Z,99105.95
2019-06-20T19:08:09.235Z,99121.41
2019-06-20T19:12:11.587Z,99134.43
2019-06-20T19:16:13.994Z,99132.29
2019-06-20T19:20:16.346Z,99153.75
2019-06-20T19:24:18.069Z,99157.27
2019-06-20T19:28:20.151Z,99170.52
2019-06-20T19:32:22.373Z,99166.31
2019-06-20T19:36:24.574Z,99183.77
2019-06-20T19:40:30.593Z,99179.45
2019-06-20T19:44:33.832Z,99186.95
2019-06-20T19:48:36.974Z,99179.94
2019-06-20T19:52:39.567Z,99191.06
2019-06-20T19:56:41.461Z,99194.39
2019-06-20T20:00:44.163Z,99194.33
2019-06-20T20:04:47.037Z,99204.22
2019-06-20T20:08:49.653Z,99210.44
2019-06-20T20:12:51.469Z,99214.77
2019-06-20T20:16:53.984Z,99211.45
2019-06-20T20:20:55.845Z,99224.42
2019-06-20T20:24:58.698Z,99220.34
2019-06-20T20:29:01.881Z,99214.92
2019-06-20T20:33:04.886Z,99216.83
2019-06-20T20:37:07.486Z,99220.53
2019-06-20T20:41:09.704Z,99223.39
2019-06-20T20:45:12.505Z,99226.39
2019-06-20T20:49:15.017Z,99224.45
2019-06-20T20:53:17.409Z,99227.38
2019-06-20T20:57:20.377Z,99232.06
2019-06-20T21:01:29.554Z,99235.14
2019-06-20T21:05:32.126Z,99238.53
2019-06-20T21:09:34.268Z,99238.42
2019-06-20T21:13:37.224Z,99240.38
2019-06-20T21:17:39.509Z,99244.85
2019-06-20T21:21:41.593Z,99244.09
2019-06-20T21:25:43.843Z,99247.51
2019-06-20T21:29:45.828Z,99244.98
2019-06-20T21:33:47.795Z,99255.52
2019-06-20T21:37:50.332Z,99256.70
2019-06-20T21:41:52.787Z,99265.88
2019-06-20T21:45:55.466Z,99271.09
2019-06-20T21:49:58.134Z,99273.82
2019-06-20T21:53:59.991Z,99286.55
2019-06-20T21:58:02.200Z,99296.80
2019-06-20T22:02:05.562Z,99297.97
2019-06-20T22:06:20.201Z,99303.19
2019-06-20T22:10:11.972Z,99302.43
2019-06-20T22:17:32.816Z,99294.88
2019-06-20T22:21:35.935Z,99299.64
2019-06-20T22:25:38.108Z,99302.30
2019-06-20T22:29:40.242Z,99305.27
2019-06-20T22:33:42.374Z,99306.47
2019-06-20T22:37:44.190Z,99294.25
2019-06-20T22:41:46.351Z,99306.13
2019-06-20T22:45:48.295Z,99317.81
2019-06-20T22:49:50.426Z,99319.62
2019-06-20T22:53:52.650Z,99316.22
2019-06-20T22:57:54.759Z,99322.00
2019-06-20T23:01:57.725Z,99313.11
2019-06-20T23:05:59.980Z,99314.72
2019-06-20T23:10:10.624Z,99309.73
2019-06-20T23:14:06.521Z,99310.59
2019-06-20T23:18:11.110Z,99320.68
2019-06-20T23:22:13.128Z,99317.33
2019-06-20T23:26:15.170Z,99328.98
2019-06-20T23:30:19.305Z,99335.50
2019-06-20T23:34:21.792Z,99341.23
2019-06-20T23:38:24.130Z,99331.34
2019-06-20T23:42:25.897Z,99330.16
2019-06-20T23:46:28.305Z,99339.05
2019-06-20T23:50:30.233Z,99346.36
2019-06-20T23:54:33.456Z,99347.16
2019-06-20T23:58:35.222Z,99338.48
